CDT,Max TemperatureF,Mean TemperatureF,Min TemperatureF,Max Dew PointF,MeanDew PointF,Min DewpointF,Max Humidity, Mean Humidity, Min Humidity, Max Sea Level PressureIn, Mean Sea Level PressureIn, Min Sea Level PressureIn, Max VisibilityMiles, Mean VisibilityMiles, Min VisibilityMiles, Max Wind SpeedMPH, Mean Wind SpeedMPH, Max Gust SpeedMPH,PrecipitationIn, CloudCover, Events, WindDirDegrees
2012-6-1,55,52,48,45,42,37,82,69,58,29.98,29.86,29.72,10,10,9,17,7,22,0.00,6,,11
2012-6-2,66,58,51,48,45,39,76,61,45,29.71,29.64,29.60,10,10,10,15,7,20,0.00,7,,282
2012-6-3,77,64,53,54,47,43,82,60,38,29.88,29.77,29.69,10,10,9,60,9,142,0.00,1,,295
2012-6-4,64,58,51,54,50,48,94,80,56,29.96,29.92,29.89,10,9,3,139,12,139,0.00,3,,14
2012-6-5,,,,,,,,,,,,,,,,,,,,,,
2012-6-6,,,,,,,,,,,,,,,,,,,,,,
2012-6-7,,,,,,,,,,,,,,,,,,,,,,
2012-6-8,80,76,73,63,59,57,69,56,45,29.92,29.85,29.80,10,10,10,14,10,20,0.00,3,,226
2012-6-9,89,78,66,59,56,55,68,48,31,29.84,29.80,29.77,10,10,10,21,14,26,0.00,0,,226
2012-6-10,84,75,66,64,57,54,64,55,44,29.92,29.88,29.84,10,10,8,23,11,31,0.00,1,,181
2012-6-11,78,72,66,64,60,50,78,65,49,29.84,29.77,29.71,10,10,9,16,10,25,0.00,1,,185
2012-6-12,68,59,50,52,45,41,82,58,43,30.16,30.01,29.80,10,10,10,20,12,25,0.00,1,,316
2012-6-13,64,55,46,48,41,37,88,62,42,30.24,30.19,30.13,10,10,10,15,8,18,0.00,0,,159
2012-6-14,69,60,51,52,46,37,88,59,33,30.17,30.12,30.02,10,10,10,21,9,29,0.00,0,,157
2012-6-15,78,70,62,59,51,45,73,52,36,30.07,30.04,29.97,10,10,10,22,13,28,0.00,0,,172
2012-6-16,77,70,64,63,57,48,94,68,46,30.06,29.96,29.77,10,9,4,22,11,28,0.02,2,,170
2012-6-17,80,70,62,66,55,48,88,59,34,29.85,29.80,29.73,10,10,7,16,10,23,0.00,1,,238
2012-6-18,73,68,62,70,62,54,100,82,56,29.75,29.64,29.52,10,9,1,28,12,40,1.14,4,Thunderstorm,174
2012-6-19,84,76,68,70,67,63,94,80,58,29.91,29.83,29.72,10,10,3,28,10,32,0.24,1,Thunderstorm,180
2012-6-20,89,79,69,72,66,61,83,71,52,29.90,29.84,29.76,10,10,10,21,11,28,0.01,1,Thunderstorm,182
2012-6-21,78,70,62,66,60,55,100,71,44,29.95,29.86,29.76,10,10,4,20,8,28,0.35,3,Thunderstorm,270
2012-6-22,73,63,55,55,53,48,88,66,43,30.03,29.99,29.95,10,10,10,14,5,21,0.00,1,,191
2012-6-23,71,62,53,57,53,52,94,72,53,30.05,30.03,30.00,10,9,2,12,4,,0.00,2,,176
2012-6-24,75,66,57,64,56,43,94,66,49,30.11,30.00,29.96,10,10,7,15,9,,0.16,3,Thunderstorm,342
2012-6-25,71,62,53,52,47,43,77,58,38,30.19,30.14,30.09,10,10,5,17,8,20,0.00,0,,5
2012-6-26,73,62,50,55,48,45,88,62,36,30.11,30.04,29.93,10,10,10,13,4,16,0.00,0,,192
2012-6-27,75,66,57,61,56,52,88,68,50,29.93,29.83,29.72,10,10,10,23,11,30,0.00,0,,169
2012-6-28,87,78,68,72,66,61,88,69,54,29.84,29.76,29.71,10,10,9,12,5,18,0.00,0,,289
2012-6-29,84,74,64,61,58,52,78,57,37,29.87,29.81,29.74,10,10,10,17,8,24,0.00,0,,254
2012-6-30,86,78,69,63,58,55,73,53,35,29.87,29.80,29.75,10,10,8,13,8,16,0.00,0,,287